createdAt,value
2022-08-27T00:00:57.631Z,95.49
2022-08-27T00:03:51.661Z,95.53
2022-08-27T00:06:38.621Z,95.96
2022-08-27T00:09:12.701Z,95.85
2022-08-27T00:11:59.619Z,96.25
2022-08-27T00:14:34.694Z,96.49
2022-08-27T00:17:21.644Z,96.57
2022-08-27T00:20:01.614Z,96.78
2022-08-27T00:22:48.632Z,97.04
2022-08-27T00:25:22.822Z,97.17
2022-08-27T00:28:16.645Z,97.28
2022-08-27T00:31:03.662Z,97.58
2022-08-27T00:33:36.712Z,97.54
2022-08-27T00:36:23.637Z,97.85
2022-08-27T00:38:56.718Z,98.01
2022-08-27T00:41:45.630Z,98.01
2022-08-27T00:44:20.489Z,98.16
2022-08-27T00:47:11.641Z,98.12
2022-08-27T00:49:58.727Z,98.38
2022-08-27T00:52:59.736Z,98.18
2022-08-27T00:55:39.846Z,98.33
2022-08-27T00:58:35.646Z,98.33
2022-08-27T01:01:11.806Z,98.01
2022-08-27T01:04:02.656Z,97.48
2022-08-27T01:06:47.649Z,98.09
2022-08-27T01:09:35.652Z,98.30
2022-08-27T01:12:09.756Z,98.38
2022-08-27T01:14:56.657Z,98.53
2022-08-27T01:17:36.646Z,97.96
2022-08-27T01:20:28.659Z,97.16
2022-08-27T01:23:36.755Z,97.56
2022-08-27T01:26:24.669Z,97.17
2022-08-27T01:29:06.678Z,97.02
2022-08-27T01:32:00.659Z,97.07
2022-08-27T01:34:54.690Z,97.50
2022-08-27T01:37:49.664Z,98.05
2022-08-27T01:40:45.659Z,97.72
2022-08-27T01:43:39.675Z,98.09
2022-08-27T01:46:31.742Z,97.95
2022-08-27T01:49:04.771Z,98.23
2022-08-27T01:51:51.674Z,98.79
2022-08-27T01:54:27.757Z,98.47
2022-08-27T01:57:14.681Z,98.65
2022-08-27T01:59:48.742Z,98.40
2022-08-27T02:02:35.686Z,98.69
2022-08-27T02:05:08.741Z,98.12
2022-08-27T02:07:55.699Z,98.27
2022-08-27T02:10:43.698Z,98.53
2022-08-27T02:13:37.715Z,98.82
2022-08-27T02:16:31.703Z,99.19
2022-08-27T02:19:26.676Z,98.82
2022-08-27T02:22:13.681Z,99.59
2022-08-27T02:24:53.695Z,99.59
2022-08-27T02:27:47.697Z,99.88
2022-08-27T02:30:44.692Z,100.00
2022-08-27T02:33:31.698Z,100.00
2022-08-27T02:36:11.720Z,100.00
2022-08-27T02:38:58.684Z,100.00
2022-08-27T02:41:31.796Z,100.00
2022-08-27T02:44:18.681Z,100.00
2022-08-27T02:46:58.756Z,100.00
2022-08-27T02:49:45.702Z,99.97
2022-08-27T02:52:25.695Z,99.93
2022-08-27T02:55:13.730Z,99.73
2022-08-27T02:57:46.792Z,99.36
2022-08-27T03:00:35.718Z,99.61
2022-08-27T03:03:10.742Z,99.19
2022-08-27T03:05:57.749Z,99.08
2022-08-27T03:08:52.017Z,99.09
2022-08-27T03:11:40.696Z,99.55
2022-08-27T03:14:14.831Z,99.74
2022-08-27T03:17:01.721Z,99.55
2022-08-27T03:19:41.731Z,99.41
2022-08-27T03:22:28.732Z,99.35
2022-08-27T03:25:08.750Z,99.94
2022-08-27T03:27:55.731Z,99.86
2022-08-27T03:30:52.776Z,99.60
2022-08-27T03:33:45.736Z,99.35
2022-08-27T03:36:18.823Z,99.21
2022-08-27T03:39:05.759Z,99.68
2022-08-27T03:41:54.751Z,99.61
2022-08-27T03:44:42.742Z,99.73
2022-08-27T03:47:22.730Z,100.00
2022-08-27T03:50:11.729Z,99.75
2022-08-27T03:52:51.741Z,99.53
2022-08-27T03:55:39.742Z,100.00
2022-08-27T03:58:24.759Z,100.00
2022-08-27T04:01:19.778Z,100.00
2022-08-27T04:04:06.758Z,100.00
2022-08-27T04:06:41.008Z,100.00
2022-08-27T04:09:27.745Z,100.00
2022-08-27T04:12:03.871Z,100.00
2022-08-27T04:14:50.738Z,100.00
2022-08-27T04:17:23.869Z,100.00
2022-08-27T04:20:34.043Z,100.00
2022-08-27T04:23:12.759Z,100.00
2022-08-27T04:26:06.764Z,100.00
2022-08-27T04:29:00.741Z,100.00
2022-08-27T04:31:54.788Z,100.00
2022-08-27T04:34:48.770Z,100.00
2022-08-27T04:37:39.772Z,100.00
2022-08-27T04:40:13.946Z,100.00
2022-08-27T04:43:00.760Z,100.00
2022-08-27T04:45:33.870Z,100.00
2022-08-27T04:48:22.766Z,100.00
2022-08-27T04:50:55.908Z,100.00
2022-08-27T04:53:42.748Z,100.00
2022-08-27T04:56:23.871Z,100.00
2022-08-27T04:59:14.783Z,100.00
2022-08-27T05:01:49.935Z,100.00
2022-08-27T05:04:36.783Z,100.00
2022-08-27T05:07:10.964Z,100.00
2022-08-27T05:09:58.822Z,100.00
2022-08-27T05:12:31.898Z,100.00
2022-08-27T05:15:18.777Z,100.00
2022-08-27T05:17:53.768Z,100.00
2022-08-27T05:20:48.775Z,100.00
2022-08-27T05:23:30.805Z,100.00
2022-08-27T05:26:17.795Z,100.00
2022-08-27T05:28:51.972Z,100.00
2022-08-27T05:31:38.860Z,100.00
2022-08-27T05:34:15.417Z,100.00
2022-08-27T05:37:11.799Z,100.00
2022-08-27T05:39:44.960Z,100.00
2022-08-27T05:42:34.812Z,100.00
2022-08-27T05:45:14.968Z,100.00
2022-08-27T05:48:08.894Z,100.00
2022-08-27T05:50:55.801Z,99.31
2022-08-27T05:53:29.106Z,99.02
2022-08-27T05:56:24.818Z,99.08
2022-08-27T05:59:16.550Z,98.88
2022-08-27T06:02:04.816Z,98.45
2022-08-27T06:04:44.808Z,98.34
2022-08-27T06:07:38.790Z,97.67
2022-08-27T06:10:26.801Z,97.52
2022-08-27T06:12:59.880Z,97.63
2022-08-27T06:15:46.869Z,97.02
2022-08-27T06:18:19.905Z,96.55
2022-08-27T06:21:07.880Z,95.63
2022-08-27T06:23:41.898Z,95.89
2022-08-27T06:26:30.812Z,96.56
2022-08-27T06:29:10.057Z,96.56
2022-08-27T06:31:56.821Z,93.43
2022-08-27T06:34:31.759Z,93.22
2022-08-27T06:37:18.837Z,92.59
2022-08-27T06:39:52.064Z,93.17
2022-08-27T06:42:38.832Z,91.79
2022-08-27T06:45:20.823Z,91.15
2022-08-27T06:48:14.846Z,89.95
2022-08-27T06:51:08.836Z,90.36
2022-08-27T06:53:55.873Z,90.29
2022-08-27T06:56:36.847Z,90.10
2022-08-27T06:59:25.880Z,90.01
2022-08-27T07:02:05.923Z,89.27
2022-08-27T07:04:52.839Z,88.56
2022-08-27T07:07:37.188Z,87.61
2022-08-27T07:10:35.877Z,87.49
2022-08-27T07:13:23.880Z,88.00
2022-08-27T07:15:57.023Z,87.42
2022-08-27T07:18:39.876Z,86.91
2022-08-27T07:21:27.874Z,87.83
2022-08-27T07:24:15.878Z,86.02
2022-08-27T07:26:50.052Z,86.34
2022-08-27T07:29:36.861Z,86.48
2022-08-27T07:32:16.826Z,86.36
2022-08-27T07:35:10.869Z,86.26
2022-08-27T07:37:57.878Z,85.64
2022-08-27T07:40:37.904Z,85.63
2022-08-27T07:43:46.855Z,85.27
2022-08-27T07:46:20.041Z,84.39
2022-08-27T07:49:06.863Z,84.41
2022-08-27T07:51:46.870Z,84.21
2022-08-27T07:54:40.890Z,84.80
2022-08-27T07:57:27.878Z,84.08
2022-08-27T08:00:01.007Z,81.17
2022-08-27T08:02:51.953Z,82.73
2022-08-27T08:05:31.886Z,83.39
2022-08-27T08:08:18.878Z,83.99
2022-08-27T08:10:58.867Z,83.20
2022-08-27T08:13:52.876Z,83.14
2022-08-27T08:16:40.035Z,81.64
2022-08-27T08:19:19.902Z,81.50
2022-08-27T08:22:13.890Z,82.21
2022-08-27T08:25:00.900Z,78.00
2022-08-27T08:27:34.029Z,79.60
2022-08-27T08:30:21.884Z,78.79
2022-08-27T08:33:01.898Z,76.96
2022-08-27T08:35:48.899Z,78.87
2022-08-27T08:38:30.978Z,77.47
2022-08-27T08:41:49.897Z,75.63
2022-08-27T08:44:51.907Z,72.74
2022-08-27T08:48:02.895Z,74.87
2022-08-27T08:50:50.966Z,75.44
2022-08-27T08:54:01.914Z,70.55
2022-08-27T08:57:12.964Z,70.70
2022-08-27T09:00:18.916Z,70.72
2022-08-27T09:03:12.912Z,71.04
2022-08-27T09:06:14.963Z,65.04
2022-08-27T09:08:49.384Z,65.59
2022-08-27T09:11:56.959Z,63.77
2022-08-27T09:14:56.329Z,63.74
2022-08-27T09:17:44.977Z,62.72
2022-08-27T09:20:20.030Z,62.39
2022-08-27T09:23:15.979Z,58.21
2022-08-27T09:25:50.025Z,60.63
2022-08-27T09:28:55.915Z,59.79
2022-08-27T09:31:50.964Z,58.57
2022-08-27T09:34:46.972Z,56.51
2022-08-27T09:37:38.968Z,58.31
2022-08-27T09:40:56.976Z,61.38
2022-08-27T09:43:45.983Z,56.13
2022-08-27T09:46:38.969Z,55.55
2022-08-27T09:49:32.972Z,58.69
2022-08-27T09:52:38.972Z,56.09
2022-08-27T09:55:13.085Z,55.92
2022-08-27T09:58:01.988Z,59.33
2022-08-27T10:00:47.579Z,55.88
2022-08-27T10:03:33.998Z,55.40
2022-08-27T10:06:13.984Z,56.38
2022-08-27T10:09:07.989Z,54.62
2022-08-27T10:11:57.077Z,55.53
2022-08-27T10:14:48.966Z,55.32
2022-08-27T10:17:55.984Z,58.17
2022-08-27T10:21:15.624Z,57.91
2022-08-27T10:24:25.789Z,56.05
2022-08-27T10:27:09.647Z,54.46
2022-08-27T10:30:19.984Z,55.73
2022-08-27T10:33:25.743Z,55.20
2022-08-27T10:36:34.141Z,53.92
2022-08-27T10:40:09.762Z,55.01
2022-08-27T10:43:06.074Z,55.30
2022-08-27T10:46:11.753Z,56.60
2022-08-27T10:48:52.084Z,55.99
2022-08-27T10:51:48.009Z,55.93
2022-08-27T10:54:30.134Z,56.26
2022-08-27T10:57:53.204Z,56.44
2022-08-27T11:00:30.068Z,56.98
2022-08-27T11:03:23.027Z,57.50
2022-08-27T11:05:58.100Z,57.48
2022-08-27T11:08:48.037Z,54.41
2022-08-27T11:15:00.038Z,54.29
2022-08-27T11:17:49.029Z,53.50
2022-08-27T11:20:55.023Z,52.86
2022-08-27T11:24:02.040Z,51.74
2022-08-27T11:26:50.032Z,51.49
2022-08-27T11:30:00.208Z,50.93
2022-08-27T11:32:54.035Z,51.73
2022-08-27T11:36:04.050Z,51.93
2022-08-27T11:39:04.037Z,50.88
2022-08-27T11:42:07.065Z,53.63
2022-08-27T11:44:50.662Z,53.52
2022-08-27T11:47:38.750Z,53.93
2022-08-27T11:50:22.127Z,54.90
2022-08-27T11:53:14.038Z,55.74
2022-08-27T11:55:47.166Z,56.93
2022-08-27T11:58:52.880Z,55.72
2022-08-27T12:01:43.076Z,54.83
2022-08-27T12:04:33.171Z,56.12
2022-08-27T12:07:11.855Z,58.53
2022-08-27T12:10:27.071Z,58.17
2022-08-27T12:13:23.100Z,57.14
2022-08-27T12:16:30.115Z,58.06
2022-08-27T12:19:36.064Z,58.22
2022-08-27T12:22:16.146Z,59.12
2022-08-27T12:25:05.073Z,59.37
2022-08-27T12:27:40.127Z,60.07
2022-08-27T12:30:48.041Z,60.57
2022-08-27T12:33:56.077Z,61.38
2022-08-27T12:36:52.059Z,60.02
2022-08-27T12:39:56.135Z,62.33
2022-08-27T12:42:44.057Z,60.85
2022-08-27T12:45:26.204Z,62.11
2022-08-27T12:48:16.073Z,62.34
2022-08-27T12:50:58.083Z,62.15
2022-08-27T12:54:18.133Z,62.29
2022-08-27T12:57:30.069Z,63.36
2022-08-27T13:00:28.141Z,61.79
2022-08-27T13:03:18.085Z,61.27
2022-08-27T13:06:12.075Z,61.73
2022-08-27T13:09:06.085Z,61.35
2022-08-27T13:11:42.163Z,62.74
2022-08-27T13:14:31.082Z,61.23
2022-08-27T13:17:09.242Z,60.01
2022-08-27T13:20:07.146Z,59.68
2022-08-27T13:22:54.066Z,61.73
2022-08-27T13:25:49.091Z,61.79
2022-08-27T13:28:46.209Z,62.25
2022-08-27T13:31:41.188Z,61.14
2022-08-27T13:34:42.144Z,62.03
2022-08-27T13:37:42.172Z,62.54
2022-08-27T13:40:35.147Z,62.07
2022-08-27T13:43:16.171Z,62.30
2022-08-27T13:46:05.093Z,60.72
2022-08-27T13:48:40.178Z,60.29
2022-08-27T13:51:36.140Z,61.90
2022-08-27T13:54:23.096Z,59.49
2022-08-27T13:57:17.110Z,60.39
2022-08-27T13:59:50.180Z,61.26
2022-08-27T14:02:39.188Z,63.00
2022-08-27T14:05:26.232Z,61.50
2022-08-27T14:08:30.142Z,61.28
2022-08-27T14:11:17.128Z,60.21
2022-08-27T14:13:54.285Z,62.03
2022-08-27T14:16:42.129Z,61.39
2022-08-27T14:19:33.405Z,62.88
2022-08-27T14:22:24.142Z,61.33
2022-08-27T14:25:04.143Z,61.42
2022-08-27T14:27:54.270Z,61.27
2022-08-27T14:30:31.585Z,63.46
2022-08-27T14:33:18.140Z,62.87
2022-08-27T14:35:52.290Z,62.71
2022-08-27T14:38:41.045Z,62.55
2022-08-27T14:41:22.134Z,62.35
2022-08-27T14:44:09.153Z,62.77
2022-08-27T14:46:43.326Z,64.41
2022-08-27T14:49:36.150Z,65.02
2022-08-27T14:52:11.225Z,63.57
2022-08-27T14:54:58.154Z,63.34
2022-08-27T14:57:31.229Z,63.34
2022-08-27T15:00:20.862Z,65.55
2022-08-27T15:02:55.637Z,63.96
2022-08-27T15:05:43.032Z,64.84
2022-08-27T15:08:27.634Z,62.69
2022-08-27T15:11:23.170Z,62.93
2022-08-27T15:13:58.247Z,63.67
2022-08-27T15:16:47.172Z,63.21
2022-08-27T15:19:20.232Z,63.08
2022-08-27T15:22:16.958Z,64.10
2022-08-27T15:24:54.242Z,64.72
2022-08-27T15:27:42.158Z,63.07
2022-08-27T15:30:19.234Z,63.53
2022-08-27T15:33:06.165Z,64.81
2022-08-27T15:35:46.185Z,65.37
2022-08-27T15:38:40.177Z,64.95
2022-08-27T15:41:30.194Z,63.96
2022-08-27T15:44:11.164Z,64.61
2022-08-27T15:46:59.194Z,64.71
2022-08-27T15:49:32.267Z,65.29
2022-08-27T15:52:21.166Z,65.54
2022-08-27T15:55:03.148Z,65.55
2022-08-27T15:57:57.156Z,66.33
2022-08-27T16:00:45.180Z,66.19
2022-08-27T16:03:35.479Z,66.85
2022-08-27T16:06:30.154Z,67.09
2022-08-27T16:09:17.165Z,66.97
2022-08-27T16:11:50.223Z,67.90
2022-08-27T16:14:37.174Z,67.97
2022-08-27T16:17:10.302Z,69.56
2022-08-27T16:19:58.313Z,70.01
2022-08-27T16:22:31.272Z,69.23
2022-08-27T16:25:19.174Z,68.78
2022-08-27T16:27:54.317Z,69.32
2022-08-27T16:30:48.268Z,69.17
2022-08-27T16:33:42.190Z,70.25
2022-08-27T16:36:29.190Z,71.22
2022-08-27T16:39:09.179Z,71.89
2022-08-27T16:42:03.186Z,72.93
2022-08-27T16:44:50.169Z,73.60
2022-08-27T16:47:30.192Z,72.48
2022-08-27T16:50:35.179Z,73.62
2022-08-27T16:53:26.189Z,74.04
2022-08-27T16:56:13.985Z,74.19
2022-08-27T16:58:47.275Z,74.99
2022-08-27T17:01:34.254Z,75.88
2022-08-27T17:04:15.371Z,76.16
2022-08-27T17:07:05.219Z,77.00
2022-08-27T17:09:38.796Z,76.39
2022-08-27T17:12:31.204Z,77.50
2022-08-27T17:15:04.290Z,77.77
2022-08-27T17:17:51.186Z,76.43
2022-08-27T17:20:24.309Z,76.74
2022-08-27T17:23:13.212Z,76.64
2022-08-27T17:25:53.222Z,77.21
2022-08-27T17:28:47.219Z,77.08
2022-08-27T17:31:45.239Z,77.44
2022-08-27T17:34:32.226Z,77.19
2022-08-27T17:37:13.201Z,78.16
2022-08-27T17:40:00.336Z,77.84
2022-08-27T17:42:42.213Z,77.79
2022-08-27T17:45:36.247Z,77.68
2022-08-27T17:48:26.595Z,78.73
2022-08-27T17:51:00.316Z,79.73
2022-08-27T17:54:00.456Z,79.53
2022-08-27T17:56:39.445Z,80.33
2022-08-27T17:59:27.242Z,80.63
2022-08-27T18:02:07.236Z,79.59
2022-08-27T18:05:01.287Z,79.96
2022-08-27T18:07:49.227Z,80.07
2022-08-27T18:10:27.296Z,79.69
2022-08-27T18:13:14.237Z,79.26
2022-08-27T18:15:57.242Z,79.47
2022-08-27T18:18:45.251Z,79.99
2022-08-27T18:21:25.137Z,79.63
2022-08-27T18:24:12.248Z,80.63
2022-08-27T18:26:52.255Z,80.95
2022-08-27T18:29:40.252Z,80.15
2022-08-27T18:32:34.248Z,80.24
2022-08-27T18:35:25.261Z,80.53
2022-08-27T18:37:58.353Z,81.39
2022-08-27T18:40:50.273Z,81.64
2022-08-27T18:43:27.351Z,81.05
2022-08-27T18:46:14.292Z,81.46
2022-08-27T18:48:55.335Z,81.72
2022-08-27T18:51:52.522Z,82.20
2022-08-27T18:54:39.262Z,82.65
2022-08-27T18:57:13.091Z,82.48
2022-08-27T19:00:00.268Z,82.83
2022-08-27T19:02:34.536Z,82.99
2022-08-27T19:05:22.285Z,83.65
2022-08-27T19:08:02.267Z,83.83
2022-08-27T19:10:56.273Z,83.91
2022-08-27T19:13:43.262Z,84.08
2022-08-27T19:16:30.351Z,84.47
2022-08-27T19:19:27.294Z,84.58
2022-08-27T19:22:21.293Z,84.45
2022-08-27T19:25:08.287Z,83.24
2022-08-27T19:27:49.276Z,83.05
2022-08-27T19:30:43.286Z,83.72
2022-08-27T19:33:30.289Z,83.16
2022-08-27T19:36:04.426Z,83.51
2022-08-27T19:38:52.309Z,83.81
2022-08-27T19:41:27.994Z,83.55
2022-08-27T19:44:15.292Z,84.07
2022-08-27T19:46:48.376Z,83.86
2022-08-27T19:49:35.306Z,84.08
2022-08-27T19:52:08.751Z,84.28
2022-08-27T19:55:13.206Z,84.27
2022-08-27T19:57:47.396Z,84.30
2022-08-27T20:00:34.285Z,84.88
2022-08-27T20:03:07.464Z,84.97
2022-08-27T20:05:56.299Z,85.46
2022-08-27T20:08:29.417Z,85.74
2022-08-27T20:11:16.317Z,86.26
2022-08-27T20:13:56.295Z,86.40
2022-08-27T20:16:43.360Z,86.18
2022-08-27T20:19:16.413Z,86.18
2022-08-27T20:22:03.322Z,86.83
2022-08-27T20:24:43.335Z,86.58
2022-08-27T20:27:30.338Z,87.15
2022-08-27T20:30:04.736Z,87.33
2022-08-27T20:32:53.305Z,87.14
2022-08-27T20:35:28.424Z,87.45
2022-08-27T20:38:15.321Z,87.00
2022-08-27T20:40:48.409Z,87.47
2022-08-27T20:43:35.330Z,86.91
2022-08-27T20:46:10.999Z,86.21
2022-08-27T20:48:59.331Z,86.31
2022-08-27T20:51:56.793Z,86.31
2022-08-27T20:54:54.332Z,87.03
2022-08-27T20:57:41.330Z,86.65
2022-08-27T21:00:21.568Z,87.17
2022-08-27T21:03:08.331Z,86.45
2022-08-27T21:05:47.171Z,87.14
2022-08-27T21:08:34.347Z,87.21
2022-08-27T21:11:07.415Z,87.74
2022-08-27T21:13:56.617Z,87.64
2022-08-27T21:16:39.363Z,88.48
2022-08-27T21:19:33.384Z,88.21
2022-08-27T21:22:27.566Z,88.80
2022-08-27T21:25:16.331Z,88.40
2022-08-27T21:27:49.467Z,88.81
2022-08-27T21:30:43.336Z,89.24
2022-08-27T21:33:37.847Z,89.48
2022-08-27T21:36:26.362Z,89.14
2022-08-27T21:38:59.540Z,89.47
2022-08-27T21:41:46.360Z,89.40
2022-08-27T21:44:29.348Z,89.48
2022-08-27T21:47:24.372Z,89.88
2022-08-27T21:50:13.374Z,89.57
2022-08-27T21:52:46.495Z,89.68
2022-08-27T21:55:33.368Z,90.23
2022-08-27T21:58:06.454Z,90.25
2022-08-27T22:00:56.471Z,89.92
2022-08-27T22:03:31.473Z,90.44
2022-08-27T22:06:19.399Z,90.61
2022-08-27T22:08:52.452Z,90.96
2022-08-27T22:11:39.391Z,90.67
2022-08-27T22:14:12.485Z,90.54
2022-08-27T22:16:59.458Z,91.05
2022-08-27T22:19:39.404Z,90.79
2022-08-27T22:22:30.805Z,91.10
2022-08-27T22:25:11.402Z,91.25
2022-08-27T22:27:59.385Z,91.59
2022-08-27T22:30:39.374Z,91.70
2022-08-27T22:33:26.406Z,91.77
2022-08-27T22:36:06.394Z,92.39
2022-08-27T22:39:04.112Z,92.58
2022-08-27T22:41:51.453Z,92.48
2022-08-27T22:44:24.501Z,92.49
2022-08-27T22:47:11.405Z,92.99
2022-08-27T22:49:44.540Z,92.70
2022-08-27T22:52:31.405Z,92.56
2022-08-27T22:55:04.475Z,93.17
2022-08-27T22:57:52.417Z,92.90
2022-08-27T23:00:36.412Z,93.19
2022-08-27T23:03:23.413Z,93.25
2022-08-27T23:06:04.472Z,93.47
2022-08-27T23:08:51.401Z,93.83
2022-08-27T23:11:31.403Z,93.66
2022-08-27T23:14:25.416Z,94.08
2022-08-27T23:17:12.430Z,94.63
2022-08-27T23:19:52.409Z,94.10
2022-08-27T23:22:39.402Z,94.49
2022-08-27T23:25:40.575Z,94.95
2022-08-27T23:28:29.411Z,94.72
2022-08-27T23:31:02.565Z,94.65
2022-08-27T23:33:49.413Z,95.24
2022-08-27T23:36:29.451Z,95.45
2022-08-27T23:39:17.425Z,95.88
2022-08-27T23:41:51.542Z,95.49
2022-08-27T23:44:38.429Z,95.60
2022-08-27T23:47:11.497Z,95.65
2022-08-27T23:49:58.433Z,95.60
2022-08-27T23:52:38.424Z,96.05
2022-08-27T23:55:32.461Z,96.51
2022-08-27T23:58:19.450Z,96.70
